sensor_id;sensor_type;location;lat;lon;timestamp;P1;durP1;ratioP1;P2;durP2;ratioP2
73816;SDS011;62146;53.232;-1.304;2023-05-10T00:01:12;5.15;;;2.10;;
73816;SDS011;62146;53.232;-1.304;2023-05-10T00:03:39;6.80;;;2.28;;
73816;SDS011;62146;53.232;-1.304;2023-05-10T00:06:06;8.60;;;2.33;;
73816;SDS011;62146;53.232;-1.304;2023-05-10T00:08:33;10.45;;;2.40;;
73816;SDS011;62146;53.232;-1.304;2023-05-10T00:10:59;8.83;;;2.30;;
73816;SDS011;62146;53.232;-1.304;2023-05-10T00:13:26;6.90;;;1.95;;
73816;SDS011;62146;53.232;-1.304;2023-05-10T00:15:53;7.45;;;2.20;;
73816;SDS011;62146;53.232;-1.304;2023-05-10T00:18:20;7.03;;;1.90;;
73816;SDS011;62146;53.232;-1.304;2023-05-10T00:20:46;9.88;;;1.98;;
73816;SDS011;62146;53.232;-1.304;2023-05-10T00:23:14;8.27;;;1.93;;
73816;SDS011;62146;53.232;-1.304;2023-05-10T00:25:41;8.45;;;2.08;;
73816;SDS011;62146;53.232;-1.304;2023-05-10T00:28:08;7.57;;;2.33;;
73816;SDS011;62146;53.232;-1.304;2023-05-10T00:30:34;6.75;;;2.05;;
73816;SDS011;62146;53.232;-1.304;2023-05-10T00:33:01;8.30;;;2.22;;
73816;SDS011;62146;53.232;-1.304;2023-05-10T00:35:27;5.77;;;2.20;;
73816;SDS011;62146;53.232;-1.304;2023-05-10T00:41:34;7.13;;;2.13;;
73816;SDS011;62146;53.232;-1.304;2023-05-10T00:44:01;6.68;;;1.88;;
73816;SDS011;62146;53.232;-1.304;2023-05-10T00:46:28;6.97;;;2.10;;
73816;SDS011;62146;53.232;-1.304;2023-05-10T00:48:55;6.97;;;2.07;;
73816;SDS011;62146;53.232;-1.304;2023-05-10T00:51:22;7.65;;;2.20;;
73816;SDS011;62146;53.232;-1.304;2023-05-10T00:53:48;6.85;;;2.00;;
73816;SDS011;62146;53.232;-1.304;2023-05-10T00:56:16;6.55;;;2.00;;
73816;SDS011;62146;53.232;-1.304;2023-05-10T00:58:43;8.30;;;2.25;;
73816;SDS011;62146;53.232;-1.304;2023-05-10T01:01:12;7.93;;;2.20;;
73816;SDS011;62146;53.232;-1.304;2023-05-10T01:03:40;7.38;;;2.05;;
73816;SDS011;62146;53.232;-1.304;2023-05-10T01:06:06;8.63;;;2.38;;
73816;SDS011;62146;53.232;-1.304;2023-05-10T01:08:33;7.88;;;1.98;;
73816;SDS011;62146;53.232;-1.304;2023-05-10T01:11:00;6.50;;;1.70;;
73816;SDS011;62146;53.232;-1.304;2023-05-10T01:13:36;6.73;;;2.07;;
73816;SDS011;62146;53.232;-1.304;2023-05-10T01:16:05;8.35;;;2.30;;
73816;SDS011;62146;53.232;-1.304;2023-05-10T01:18:34;5.25;;;2.20;;
73816;SDS011;62146;53.232;-1.304;2023-05-10T01:21:23;8.40;;;2.05;;
73816;SDS011;62146;53.232;-1.304;2023-05-10T01:34:48;6.07;;;1.70;;
73816;SDS011;62146;53.232;-1.304;2023-05-10T01:37:22;8.27;;;2.03;;
73816;SDS011;62146;53.232;-1.304;2023-05-10T01:39:58;6.17;;;1.70;;
73816;SDS011;62146;53.232;-1.304;2023-05-10T01:42:30;6.55;;;2.00;;
73816;SDS011;62146;53.232;-1.304;2023-05-10T01:47:35;7.28;;;2.10;;
73816;SDS011;62146;53.232;-1.304;2023-05-10T01:50:06;6.85;;;1.92;;
73816;SDS011;62146;53.232;-1.304;2023-05-10T01:52:42;5.33;;;1.83;;
73816;SDS011;62146;53.232;-1.304;2023-05-10T01:55:15;6.13;;;2.17;;
73816;SDS011;62146;53.232;-1.304;2023-05-10T01:57:44;7.80;;;2.17;;
73816;SDS011;62146;53.232;-1.304;2023-05-10T02:00:15;6.97;;;2.15;;
73816;SDS011;62146;53.232;-1.304;2023-05-10T02:02:47;7.80;;;1.88;;
73816;SDS011;62146;53.232;-1.304;2023-05-10T02:05:15;6.03;;;1.77;;
73816;SDS011;62146;53.232;-1.304;2023-05-10T02:07:43;6.25;;;1.85;;
73816;SDS011;62146;53.232;-1.304;2023-05-10T02:10:11;5.45;;;1.70;;
73816;SDS011;62146;53.232;-1.304;2023-05-10T02:12:41;6.22;;;1.77;;
73816;SDS011;62146;53.232;-1.304;2023-05-10T02:15:10;10.25;;;2.08;;
73816;SDS011;62146;53.232;-1.304;2023-05-10T02:17:39;6.80;;;1.80;;
73816;SDS011;62146;53.232;-1.304;2023-05-10T02:20:08;8.60;;;2.58;;
73816;SDS011;62146;53.232;-1.304;2023-05-10T02:22:36;8.52;;;1.88;;
73816;SDS011;62146;53.232;-1.304;2023-05-10T02:25:05;8.40;;;2.40;;
73816;SDS011;62146;53.232;-1.304;2023-05-10T02:27:35;5.65;;;1.52;;
73816;SDS011;62146;53.232;-1.304;2023-05-10T02:30:03;6.13;;;2.07;;
73816;SDS011;62146;53.232;-1.304;2023-05-10T02:32:32;6.95;;;1.92;;
73816;SDS011;62146;53.232;-1.304;2023-05-10T02:35:00;8.32;;;1.65;;
73816;SDS011;62146;53.232;-1.304;2023-05-10T02:37:29;6.80;;;1.80;;
73816;SDS011;62146;53.232;-1.304;2023-05-10T02:39:56;6.45;;;1.92;;
73816;SDS011;62146;53.232;-1.304;2023-05-10T02:42:25;4.53;;;1.50;;
73816;SDS011;62146;53.232;-1.304;2023-05-10T02:44:55;8.85;;;2.00;;
73816;SDS011;62146;53.232;-1.304;2023-05-10T02:47:27;6.88;;;1.80;;
73816;SDS011;62146;53.232;-1.304;2023-05-10T02:49:54;8.15;;;1.80;;
73816;SDS011;62146;53.232;-1.304;2023-05-10T02:52:23;6.45;;;1.70;;
73816;SDS011;62146;53.232;-1.304;2023-05-10T02:54:58;6.83;;;1.93;;
73816;SDS011;62146;53.232;-1.304;2023-05-10T02:57:32;7.40;;;1.98;;
73816;SDS011;62146;53.232;-1.304;2023-05-10T03:00:02;5.70;;;1.70;;
73816;SDS011;62146;53.232;-1.304;2023-05-10T03:02:30;8.20;;;2.08;;
73816;SDS011;62146;53.232;-1.304;2023-05-10T03:04:57;7.97;;;1.88;;
73816;SDS011;62146;53.232;-1.304;2023-05-10T03:07:23;12.97;;;2.37;;
73816;SDS011;62146;53.232;-1.304;2023-05-10T03:09:50;8.85;;;2.10;;
73816;SDS011;62146;53.232;-1.304;2023-05-10T03:20:16;6.80;;;2.10;;
73816;SDS011;62146;53.232;-1.304;2023-05-10T03:22:53;6.03;;;1.88;;
73816;SDS011;62146;53.232;-1.304;2023-05-10T03:25:22;7.45;;;1.90;;
73816;SDS011;62146;53.232;-1.304;2023-05-10T03:27:49;8.85;;;1.70;;
73816;SDS011;62146;53.232;-1.304;2023-05-10T03:30:16;6.32;;;2.00;;
73816;SDS011;62146;53.232;-1.304;2023-05-10T03:32:44;4.53;;;1.40;;
73816;SDS011;62146;53.232;-1.304;2023-05-10T03:35:11;6.10;;;1.70;;
73816;SDS011;62146;53.232;-1.304;2023-05-10T03:37:39;6.95;;;2.22;;
73816;SDS011;62146;53.232;-1.304;2023-05-10T03:40:06;8.57;;;2.15;;
73816;SDS011;62146;53.232;-1.304;2023-05-10T03:42:33;5.63;;;1.60;;
73816;SDS011;62146;53.232;-1.304;2023-05-10T03:45:00;5.17;;;1.50;;
73816;SDS011;62146;53.232;-1.304;2023-05-10T03:47:26;6.43;;;2.00;;
73816;SDS011;62146;53.232;-1.304;2023-05-10T03:49:53;5.97;;;2.00;;
73816;SDS011;62146;53.232;-1.304;2023-05-10T03:52:19;6.90;;;1.70;;
73816;SDS011;62146;53.232;-1.304;2023-05-10T03:54:46;6.57;;;2.00;;
73816;SDS011;62146;53.232;-1.304;2023-05-10T03:57:12;6.53;;;2.00;;
73816;SDS011;62146;53.232;-1.304;2023-05-10T03:59:39;5.90;;;1.77;;
73816;SDS011;62146;53.232;-1.304;2023-05-10T04:02:05;5.47;;;1.80;;
73816;SDS011;62146;53.232;-1.304;2023-05-10T04:04:32;7.55;;;2.15;;
73816;SDS011;62146;53.232;-1.304;2023-05-10T04:06:58;8.35;;;1.92;;
73816;SDS011;62146;53.232;-1.304;2023-05-10T04:09:25;8.00;;;2.00;;
73816;SDS011;62146;53.232;-1.304;2023-05-10T04:11:52;6.63;;;1.77;;
73816;SDS011;62146;53.232;-1.304;2023-05-10T04:14:18;9.05;;;2.28;;
73816;SDS011;62146;53.232;-1.304;2023-05-10T04:16:45;7.22;;;1.83;;
73816;SDS011;62146;53.232;-1.304;2023-05-10T04:19:11;6.43;;;1.95;;
73816;SDS011;62146;53.232;-1.304;2023-05-10T04:21:38;7.67;;;1.83;;
73816;SDS011;62146;53.232;-1.304;2023-05-10T04:24:05;6.65;;;2.20;;
73816;SDS011;62146;53.232;-1.304;2023-05-10T04:26:31;7.90;;;2.03;;
73816;SDS011;62146;53.232;-1.304;2023-05-10T04:28:58;7.85;;;2.00;;
73816;SDS011;62146;53.232;-1.304;2023-05-10T04:31:24;7.80;;;2.30;;
73816;SDS011;62146;53.232;-1.304;2023-05-10T04:33:52;8.43;;;2.00;;
73816;SDS011;62146;53.232;-1.304;2023-05-10T04:36:19;7.18;;;2.08;;
73816;SDS011;62146;53.232;-1.304;2023-05-10T04:38:47;7.20;;;2.33;;
73816;SDS011;62146;53.232;-1.304;2023-05-10T04:41:13;5.30;;;1.95;;
73816;SDS011;62146;53.232;-1.304;2023-05-10T04:43:40;7.45;;;2.53;;
73816;SDS011;62146;53.232;-1.304;2023-05-10T04:46:06;8.67;;;2.03;;
73816;SDS011;62146;53.232;-1.304;2023-05-10T04:48:33;8.48;;;2.40;;
73816;SDS011;62146;53.232;-1.304;2023-05-10T04:51:00;8.60;;;2.58;;
73816;SDS011;62146;53.232;-1.304;2023-05-10T04:53:27;6.57;;;2.42;;
73816;SDS011;62146;53.232;-1.304;2023-05-10T04:55:53;6.60;;;2.35;;
73816;SDS011;62146;53.232;-1.304;2023-05-10T04:58:20;7.23;;;2.57;;
73816;SDS011;62146;53.232;-1.304;2023-05-10T05:00:47;5.60;;;2.28;;
73816;SDS011;62146;53.232;-1.304;2023-05-10T05:03:13;9.10;;;2.80;;
73816;SDS011;62146;53.232;-1.304;2023-05-10T05:05:40;6.50;;;2.30;;
73816;SDS011;62146;53.232;-1.304;2023-05-10T05:08:06;7.00;;;2.20;;
73816;SDS011;62146;53.232;-1.304;2023-05-10T05:10:33;5.37;;;2.40;;
73816;SDS011;62146;53.232;-1.304;2023-05-10T05:13:00;9.45;;;2.80;;
73816;SDS011;62146;53.232;-1.304;2023-05-10T05:15:26;7.63;;;2.72;;
73816;SDS011;62146;53.232;-1.304;2023-05-10T05:17:53;8.13;;;2.80;;
73816;SDS011;62146;53.232;-1.304;2023-05-10T05:20:20;9.13;;;2.92;;
73816;SDS011;62146;53.232;-1.304;2023-05-10T05:22:46;9.27;;;2.50;;
73816;SDS011;62146;53.232;-1.304;2023-05-10T05:25:13;10.70;;;3.15;;
73816;SDS011;62146;53.232;-1.304;2023-05-10T05:27:40;7.57;;;3.08;;
73816;SDS011;62146;53.232;-1.304;2023-05-10T05:30:06;9.10;;;3.30;;
73816;SDS011;62146;53.232;-1.304;2023-05-10T05:32:33;10.32;;;3.33;;
73816;SDS011;62146;53.232;-1.304;2023-05-10T05:35:00;8.67;;;3.33;;
73816;SDS011;62146;53.232;-1.304;2023-05-10T05:37:27;8.48;;;3.42;;
73816;SDS011;62146;53.232;-1.304;2023-05-10T05:39:53;10.32;;;3.30;;
73816;SDS011;62146;53.232;-1.304;2023-05-10T05:42:21;10.35;;;3.50;;
73816;SDS011;62146;53.232;-1.304;2023-05-10T05:44:47;11.90;;;3.50;;
73816;SDS011;62146;53.232;-1.304;2023-05-10T05:47:14;11.00;;;3.47;;
73816;SDS011;62146;53.232;-1.304;2023-05-10T05:49:40;9.77;;;3.25;;
73816;SDS011;62146;53.232;-1.304;2023-05-10T05:52:07;10.88;;;3.80;;
73816;SDS011;62146;53.232;-1.304;2023-05-10T05:54:34;13.20;;;4.00;;
73816;SDS011;62146;53.232;-1.304;2023-05-10T05:57:00;7.55;;;3.10;;
73816;SDS011;62146;53.232;-1.304;2023-05-10T05:59:27;11.83;;;3.90;;
73816;SDS011;62146;53.232;-1.304;2023-05-10T06:01:54;9.15;;;3.88;;
73816;SDS011;62146;53.232;-1.304;2023-05-10T06:04:20;9.48;;;3.38;;
73816;SDS011;62146;53.232;-1.304;2023-05-10T06:06:47;9.48;;;3.67;;
73816;SDS011;62146;53.232;-1.304;2023-05-10T06:09:14;10.63;;;3.70;;
73816;SDS011;62146;53.232;-1.304;2023-05-10T06:11:41;13.13;;;3.90;;
73816;SDS011;62146;53.232;-1.304;2023-05-10T06:14:07;10.20;;;4.30;;
73816;SDS011;62146;53.232;-1.304;2023-05-10T06:16:34;10.40;;;4.18;;
73816;SDS011;62146;53.232;-1.304;2023-05-10T06:19:01;10.90;;;3.78;;
73816;SDS011;62146;53.232;-1.304;2023-05-10T06:21:28;12.70;;;4.45;;
73816;SDS011;62146;53.232;-1.304;2023-05-10T06:23:55;10.97;;;4.00;;
73816;SDS011;62146;53.232;-1.304;2023-05-10T06:26:21;12.18;;;4.32;;
73816;SDS011;62146;53.232;-1.304;2023-05-10T06:28:48;10.23;;;4.03;;
73816;SDS011;62146;53.232;-1.304;2023-05-10T06:31:14;12.27;;;4.22;;
73816;SDS011;62146;53.232;-1.304;2023-05-10T06:33:42;13.13;;;4.55;;
73816;SDS011;62146;53.232;-1.304;2023-05-10T06:36:08;10.33;;;4.07;;
73816;SDS011;62146;53.232;-1.304;2023-05-10T06:38:35;9.73;;;4.05;;
73816;SDS011;62146;53.232;-1.304;2023-05-10T06:41:02;8.95;;;4.18;;
73816;SDS011;62146;53.232;-1.304;2023-05-10T06:43:28;11.85;;;3.75;;
73816;SDS011;62146;53.232;-1.304;2023-05-10T06:45:55;9.75;;;3.88;;
73816;SDS011;62146;53.232;-1.304;2023-05-10T06:48:22;14.20;;;4.60;;
73816;SDS011;62146;53.232;-1.304;2023-05-10T06:50:48;8.45;;;3.70;;
73816;SDS011;62146;53.232;-1.304;2023-05-10T06:53:15;10.07;;;4.15;;
73816;SDS011;62146;53.232;-1.304;2023-05-10T06:55:42;9.20;;;3.75;;
73816;SDS011;62146;53.232;-1.304;2023-05-10T06:58:09;10.65;;;4.20;;
73816;SDS011;62146;53.232;-1.304;2023-05-10T07:00:35;9.23;;;3.90;;
73816;SDS011;62146;53.232;-1.304;2023-05-10T07:03:06;9.65;;;3.90;;
73816;SDS011;62146;53.232;-1.304;2023-05-10T07:05:33;9.70;;;3.88;;
73816;SDS011;62146;53.232;-1.304;2023-05-10T07:08:00;8.90;;;3.75;;
73816;SDS011;62146;53.232;-1.304;2023-05-10T07:10:27;8.82;;;3.67;;
73816;SDS011;62146;53.232;-1.304;2023-05-10T07:12:53;8.83;;;3.40;;
73816;SDS011;62146;53.232;-1.304;2023-05-10T07:15:20;10.30;;;4.28;;
73816;SDS011;62146;53.232;-1.304;2023-05-10T07:17:47;7.70;;;3.67;;
73816;SDS011;62146;53.232;-1.304;2023-05-10T07:20:13;9.27;;;3.70;;
73816;SDS011;62146;53.232;-1.304;2023-05-10T07:22:40;11.02;;;3.60;;
73816;SDS011;62146;53.232;-1.304;2023-05-10T07:25:07;8.63;;;3.77;;
73816;SDS011;62146;53.232;-1.304;2023-05-10T07:27:34;9.10;;;3.50;;
73816;SDS011;62146;53.232;-1.304;2023-05-10T07:30:00;9.73;;;3.63;;
73816;SDS011;62146;53.232;-1.304;2023-05-10T07:32:27;7.93;;;3.30;;
73816;SDS011;62146;53.232;-1.304;2023-05-10T07:34:54;9.40;;;3.40;;
73816;SDS011;62146;53.232;-1.304;2023-05-10T07:37:20;6.87;;;2.93;;
73816;SDS011;62146;53.232;-1.304;2023-05-10T07:39:47;9.77;;;3.53;;
73816;SDS011;62146;53.232;-1.304;2023-05-10T07:42:14;8.05;;;3.50;;
73816;SDS011;62146;53.232;-1.304;2023-05-10T07:44:40;9.75;;;3.33;;
73816;SDS011;62146;53.232;-1.304;2023-05-10T07:47:07;5.53;;;2.45;;
73816;SDS011;62146;53.232;-1.304;2023-05-10T07:49:34;7.67;;;2.90;;
73816;SDS011;62146;53.232;-1.304;2023-05-10T07:52:02;7.70;;;3.00;;
73816;SDS011;62146;53.232;-1.304;2023-05-10T07:54:30;7.95;;;2.90;;
73816;SDS011;62146;53.232;-1.304;2023-05-10T07:56:56;8.18;;;2.60;;
73816;SDS011;62146;53.232;-1.304;2023-05-10T07:59:23;8.32;;;2.72;;
73816;SDS011;62146;53.232;-1.304;2023-05-10T08:01:49;5.63;;;2.33;;
73816;SDS011;62146;53.232;-1.304;2023-05-10T08:04:16;8.48;;;2.65;;
73816;SDS011;62146;53.232;-1.304;2023-05-10T08:06:43;7.35;;;2.78;;
73816;SDS011;62146;53.232;-1.304;2023-05-10T08:09:09;6.45;;;2.55;;
73816;SDS011;62146;53.232;-1.304;2023-05-10T08:11:37;7.20;;;2.58;;
73816;SDS011;62146;53.232;-1.304;2023-05-10T08:14:03;9.33;;;2.60;;
73816;SDS011;62146;53.232;-1.304;2023-05-10T08:16:30;5.25;;;2.40;;
73816;SDS011;62146;53.232;-1.304;2023-05-10T08:18:56;7.80;;;2.40;;
73816;SDS011;62146;53.232;-1.304;2023-05-10T08:21:23;7.05;;;2.53;;
73816;SDS011;62146;53.232;-1.304;2023-05-10T08:23:50;7.65;;;2.35;;
73816;SDS011;62146;53.232;-1.304;2023-05-10T08:26:16;7.17;;;2.37;;
73816;SDS011;62146;53.232;-1.304;2023-05-10T08:28:43;6.72;;;2.22;;
73816;SDS011;62146;53.232;-1.304;2023-05-10T08:31:09;5.30;;;2.17;;
73816;SDS011;62146;53.232;-1.304;2023-05-10T08:33:36;6.22;;;2.42;;
73816;SDS011;62146;53.232;-1.304;2023-05-10T08:36:03;7.82;;;2.70;;
73816;SDS011;62146;53.232;-1.304;2023-05-10T08:38:30;7.73;;;2.60;;
73816;SDS011;62146;53.232;-1.304;2023-05-10T08:40:56;6.85;;;2.42;;
73816;SDS011;62146;53.232;-1.304;2023-05-10T08:43:28;5.53;;;2.30;;
73816;SDS011;62146;53.232;-1.304;2023-05-10T08:45:56;10.10;;;2.65;;
73816;SDS011;62146;53.232;-1.304;2023-05-10T08:48:27;7.10;;;2.58;;
73816;SDS011;62146;53.232;-1.304;2023-05-10T08:50:55;7.97;;;2.73;;
73816;SDS011;62146;53.232;-1.304;2023-05-10T08:53:25;6.70;;;2.30;;
73816;SDS011;62146;53.232;-1.304;2023-05-10T08:55:53;7.05;;;2.78;;
73816;SDS011;62146;53.232;-1.304;2023-05-10T08:58:20;7.43;;;2.83;;
73816;SDS011;62146;53.232;-1.304;2023-05-10T09:00:48;7.10;;;2.72;;
73816;SDS011;62146;53.232;-1.304;2023-05-10T09:03:17;6.93;;;2.60;;
73816;SDS011;62146;53.232;-1.304;2023-05-10T09:05:44;8.43;;;3.08;;
73816;SDS011;62146;53.232;-1.304;2023-05-10T09:08:11;6.80;;;2.83;;
73816;SDS011;62146;53.232;-1.304;2023-05-10T09:10:39;6.38;;;2.70;;
73816;SDS011;62146;53.232;-1.304;2023-05-10T09:13:08;7.63;;;2.80;;
73816;SDS011;62146;53.232;-1.304;2023-05-10T09:15:38;6.50;;;3.10;;
73816;SDS011;62146;53.232;-1.304;2023-05-10T09:18:04;8.10;;;3.15;;
73816;SDS011;62146;53.232;-1.304;2023-05-10T09:20:31;7.47;;;2.78;;
73816;SDS011;62146;53.232;-1.304;2023-05-10T09:22:58;6.90;;;3.17;;
73816;SDS011;62146;53.232;-1.304;2023-05-10T09:25:25;7.40;;;3.08;;
73816;SDS011;62146;53.232;-1.304;2023-05-10T09:27:51;8.47;;;3.47;;
73816;SDS011;62146;53.232;-1.304;2023-05-10T09:32:58;6.68;;;2.85;;
73816;SDS011;62146;53.232;-1.304;2023-05-10T09:35:26;6.07;;;3.00;;
73816;SDS011;62146;53.232;-1.304;2023-05-10T09:37:55;7.25;;;3.00;;
73816;SDS011;62146;53.232;-1.304;2023-05-10T09:40:24;6.87;;;2.63;;
73816;SDS011;62146;53.232;-1.304;2023-05-10T09:42:53;8.95;;;2.97;;
73816;SDS011;62146;53.232;-1.304;2023-05-10T09:45:28;6.50;;;2.72;;
73816;SDS011;62146;53.232;-1.304;2023-05-10T09:47:56;7.15;;;2.70;;
73816;SDS011;62146;53.232;-1.304;2023-05-10T09:50:24;7.70;;;2.85;;
73816;SDS011;62146;53.232;-1.304;2023-05-10T09:52:52;4.70;;;2.43;;
73816;SDS011;62146;53.232;-1.304;2023-05-10T09:55:22;7.43;;;3.00;;
73816;SDS011;62146;53.232;-1.304;2023-05-10T09:57:58;6.90;;;2.90;;
73816;SDS011;62146;53.232;-1.304;2023-05-10T10:00:26;5.95;;;2.42;;
73816;SDS011;62146;53.232;-1.304;2023-05-10T10:02:54;6.78;;;2.63;;
73816;SDS011;62146;53.232;-1.304;2023-05-10T10:05:41;6.30;;;2.10;;
73816;SDS011;62146;53.232;-1.304;2023-05-10T10:08:11;7.53;;;2.42;;
73816;SDS011;62146;53.232;-1.304;2023-05-10T10:10:39;5.88;;;2.28;;
73816;SDS011;62146;53.232;-1.304;2023-05-10T10:13:07;5.72;;;2.30;;
73816;SDS011;62146;53.232;-1.304;2023-05-10T10:15:34;7.90;;;2.30;;
73816;SDS011;62146;53.232;-1.304;2023-05-10T10:18:02;4.13;;;2.10;;
73816;SDS011;62146;53.232;-1.304;2023-05-10T10:20:30;6.60;;;2.35;;
73816;SDS011;62146;53.232;-1.304;2023-05-10T10:22:57;5.93;;;2.28;;
73816;SDS011;62146;53.232;-1.304;2023-05-10T10:25:23;5.25;;;2.20;;
73816;SDS011;62146;53.232;-1.304;2023-05-10T10:30:25;6.07;;;2.20;;
73816;SDS011;62146;53.232;-1.304;2023-05-10T10:35:52;4.55;;;1.85;;
73816;SDS011;62146;53.232;-1.304;2023-05-10T10:38:20;5.25;;;1.88;;
73816;SDS011;62146;53.232;-1.304;2023-05-10T10:40:56;6.43;;;2.00;;
73816;SDS011;62146;53.232;-1.304;2023-05-10T10:43:28;5.67;;;2.23;;
73816;SDS011;62146;53.232;-1.304;2023-05-10T10:49:07;5.07;;;1.98;;
73816;SDS011;62146;53.232;-1.304;2023-05-10T10:51:39;5.03;;;2.08;;
73816;SDS011;62146;53.232;-1.304;2023-05-10T10:54:10;6.25;;;1.85;;
73816;SDS011;62146;53.232;-1.304;2023-05-10T10:56:37;5.53;;;1.90;;
73816;SDS011;62146;53.232;-1.304;2023-05-10T10:59:04;6.53;;;2.10;;
73816;SDS011;62146;53.232;-1.304;2023-05-10T11:01:34;7.47;;;1.90;;
73816;SDS011;62146;53.232;-1.304;2023-05-10T11:06:30;5.75;;;2.20;;
73816;SDS011;62146;53.232;-1.304;2023-05-10T11:09:10;5.70;;;2.20;;
73816;SDS011;62146;53.232;-1.304;2023-05-10T11:11:51;6.10;;;2.00;;
73816;SDS011;62146;53.232;-1.304;2023-05-10T11:14:21;4.75;;;1.92;;
73816;SDS011;62146;53.232;-1.304;2023-05-10T11:16:48;6.15;;;1.85;;
73816;SDS011;62146;53.232;-1.304;2023-05-10T11:19:16;6.82;;;2.40;;
73816;SDS011;62146;53.232;-1.304;2023-05-10T11:22:12;5.17;;;1.87;;
73816;SDS011;62146;53.232;-1.304;2023-05-10T11:24:39;5.95;;;1.98;;
73816;SDS011;62146;53.232;-1.304;2023-05-10T11:27:06;6.10;;;2.28;;
73816;SDS011;62146;53.232;-1.304;2023-05-10T11:29:33;6.45;;;1.75;;
73816;SDS011;62146;53.232;-1.304;2023-05-10T11:31:59;4.57;;;1.65;;
73816;SDS011;62146;53.232;-1.304;2023-05-10T11:34:27;6.43;;;2.00;;
73816;SDS011;62146;53.232;-1.304;2023-05-10T11:37:01;5.22;;;1.67;;
73816;SDS011;62146;53.232;-1.304;2023-05-10T11:39:31;6.10;;;1.60;;
73816;SDS011;62146;53.232;-1.304;2023-05-10T11:41:58;4.78;;;1.70;;
73816;SDS011;62146;53.232;-1.304;2023-05-10T11:44:31;4.20;;;1.88;;
73816;SDS011;62146;53.232;-1.304;2023-05-10T11:47:01;4.87;;;1.60;;
73816;SDS011;62146;53.232;-1.304;2023-05-10T11:49:29;4.80;;;1.65;;
73816;SDS011;62146;53.232;-1.304;2023-05-10T11:52:06;4.82;;;1.80;;
73816;SDS011;62146;53.232;-1.304;2023-05-10T11:54:33;4.78;;;1.58;;
73816;SDS011;62146;53.232;-1.304;2023-05-10T11:57:03;3.97;;;1.60;;
73816;SDS011;62146;53.232;-1.304;2023-05-10T11:59:30;3.97;;;1.37;;
73816;SDS011;62146;53.232;-1.304;2023-05-10T12:01:56;4.70;;;1.50;;
73816;SDS011;62146;53.232;-1.304;2023-05-10T12:04:23;3.92;;;1.38;;
73816;SDS011;62146;53.232;-1.304;2023-05-10T12:06:50;3.38;;;1.30;;
73816;SDS011;62146;53.232;-1.304;2023-05-10T12:09:17;3.05;;;1.30;;
73816;SDS011;62146;53.232;-1.304;2023-05-10T12:11:56;3.27;;;1.10;;
73816;SDS011;62146;53.232;-1.304;2023-05-10T12:14:23;3.60;;;1.15;;
73816;SDS011;62146;53.232;-1.304;2023-05-10T12:16:50;4.32;;;1.50;;
73816;SDS011;62146;53.232;-1.304;2023-05-10T12:19:20;3.15;;;1.00;;
73816;SDS011;62146;53.232;-1.304;2023-05-10T12:21:47;3.83;;;1.52;;
73816;SDS011;62146;53.232;-1.304;2023-05-10T12:24:14;6.63;;;2.00;;
73816;SDS011;62146;53.232;-1.304;2023-05-10T12:26:45;5.45;;;1.20;;
73816;SDS011;62146;53.232;-1.304;2023-05-10T12:29:12;4.10;;;1.20;;
73816;SDS011;62146;53.232;-1.304;2023-05-10T12:31:53;3.65;;;1.00;;
73816;SDS011;62146;53.232;-1.304;2023-05-10T12:34:25;3.45;;;1.00;;
73816;SDS011;62146;53.232;-1.304;2023-05-10T12:36:53;3.40;;;1.20;;
73816;SDS011;62146;53.232;-1.304;2023-05-10T12:39:20;3.50;;;1.00;;
73816;SDS011;62146;53.232;-1.304;2023-05-10T12:41:46;5.53;;;0.98;;
73816;SDS011;62146;53.232;-1.304;2023-05-10T12:44:13;4.93;;;1.08;;
73816;SDS011;62146;53.232;-1.304;2023-05-10T12:46:39;3.03;;;0.90;;
73816;SDS011;62146;53.232;-1.304;2023-05-10T12:49:06;3.00;;;0.90;;
73816;SDS011;62146;53.232;-1.304;2023-05-10T12:51:34;2.80;;;1.02;;
73816;SDS011;62146;53.232;-1.304;2023-05-10T12:54:02;3.63;;;0.90;;
73816;SDS011;62146;53.232;-1.304;2023-05-10T12:56:29;2.90;;;0.88;;
73816;SDS011;62146;53.232;-1.304;2023-05-10T12:58:56;2.65;;;0.73;;
73816;SDS011;62146;53.232;-1.304;2023-05-10T13:01:23;3.70;;;0.90;;
73816;SDS011;62146;53.232;-1.304;2023-05-10T13:03:51;3.63;;;0.93;;
73816;SDS011;62146;53.232;-1.304;2023-05-10T13:06:17;3.25;;;0.80;;
73816;SDS011;62146;53.232;-1.304;2023-05-10T13:08:44;3.15;;;0.77;;
73816;SDS011;62146;53.232;-1.304;2023-05-10T13:11:10;2.50;;;0.70;;
73816;SDS011;62146;53.232;-1.304;2023-05-10T13:13:37;3.13;;;0.80;;
73816;SDS011;62146;53.232;-1.304;2023-05-10T13:16:04;2.97;;;0.90;;
73816;SDS011;62146;53.232;-1.304;2023-05-10T13:18:30;3.20;;;0.90;;
73816;SDS011;62146;53.232;-1.304;2023-05-10T13:20:57;3.35;;;0.93;;
73816;SDS011;62146;53.232;-1.304;2023-05-10T13:23:24;3.40;;;0.80;;
73816;SDS011;62146;53.232;-1.304;2023-05-10T13:25:50;2.53;;;0.70;;
73816;SDS011;62146;53.232;-1.304;2023-05-10T13:28:17;3.97;;;0.80;;
73816;SDS011;62146;53.232;-1.304;2023-05-10T13:30:43;2.70;;;0.77;;
73816;SDS011;62146;53.232;-1.304;2023-05-10T13:33:10;3.42;;;1.02;;
73816;SDS011;62146;53.232;-1.304;2023-05-10T13:35:36;2.55;;;0.80;;
73816;SDS011;62146;53.232;-1.304;2023-05-10T13:38:03;4.13;;;0.90;;
73816;SDS011;62146;53.232;-1.304;2023-05-10T13:40:29;2.83;;;0.80;;
73816;SDS011;62146;53.232;-1.304;2023-05-10T13:42:56;2.60;;;0.77;;
73816;SDS011;62146;53.232;-1.304;2023-05-10T13:45:22;2.78;;;0.77;;
73816;SDS011;62146;53.232;-1.304;2023-05-10T13:47:49;2.80;;;0.93;;
73816;SDS011;62146;53.232;-1.304;2023-05-10T13:50:16;2.93;;;0.60;;
73816;SDS011;62146;53.232;-1.304;2023-05-10T13:52:43;1.92;;;0.63;;
73816;SDS011;62146;53.232;-1.304;2023-05-10T13:55:10;2.28;;;0.70;;
73816;SDS011;62146;53.232;-1.304;2023-05-10T13:57:38;2.50;;;0.70;;
73816;SDS011;62146;53.232;-1.304;2023-05-10T14:00:05;1.92;;;0.60;;
73816;SDS011;62146;53.232;-1.304;2023-05-10T14:02:32;4.00;;;0.70;;
73816;SDS011;62146;53.232;-1.304;2023-05-10T14:04:59;2.90;;;0.70;;
73816;SDS011;62146;53.232;-1.304;2023-05-10T14:07:26;1.30;;;0.50;;
73816;SDS011;62146;53.232;-1.304;2023-05-10T14:09:52;2.30;;;0.52;;
73816;SDS011;62146;53.232;-1.304;2023-05-10T14:12:19;1.70;;;0.55;;
73816;SDS011;62146;53.232;-1.304;2023-05-10T14:14:45;1.70;;;0.60;;
73816;SDS011;62146;53.232;-1.304;2023-05-10T14:17:12;1.50;;;0.52;;
73816;SDS011;62146;53.232;-1.304;2023-05-10T14:19:38;1.80;;;0.60;;
73816;SDS011;62146;53.232;-1.304;2023-05-10T14:22:05;1.42;;;0.50;;
73816;SDS011;62146;53.232;-1.304;2023-05-10T14:24:32;3.25;;;0.60;;
73816;SDS011;62146;53.232;-1.304;2023-05-10T14:26:58;2.03;;;0.43;;
73816;SDS011;62146;53.232;-1.304;2023-05-10T14:29:25;2.08;;;0.50;;
73816;SDS011;62146;53.232;-1.304;2023-05-10T14:31:53;2.00;;;0.55;;
73816;SDS011;62146;53.232;-1.304;2023-05-10T14:34:20;2.47;;;0.50;;
73816;SDS011;62146;53.232;-1.304;2023-05-10T14:36:46;2.20;;;0.60;;
73816;SDS011;62146;53.232;-1.304;2023-05-10T14:39:13;1.60;;;0.50;;
73816;SDS011;62146;53.232;-1.304;2023-05-10T14:41:39;3.17;;;0.50;;
73816;SDS011;62146;53.232;-1.304;2023-05-10T14:44:09;1.83;;;0.40;;
73816;SDS011;62146;53.232;-1.304;2023-05-10T14:46:36;1.75;;;0.50;;
73816;SDS011;62146;53.232;-1.304;2023-05-10T14:49:03;1.92;;;0.60;;
73816;SDS011;62146;53.232;-1.304;2023-05-10T14:51:29;1.70;;;0.50;;
73816;SDS011;62146;53.232;-1.304;2023-05-10T14:53:56;1.77;;;0.55;;
73816;SDS011;62146;53.232;-1.304;2023-05-10T14:56:22;3.38;;;0.55;;
73816;SDS011;62146;53.232;-1.304;2023-05-10T14:58:49;1.65;;;0.50;;
73816;SDS011;62146;53.232;-1.304;2023-05-10T15:01:16;1.48;;;0.40;;
73816;SDS011;62146;53.232;-1.304;2023-05-10T15:03:43;1.10;;;0.30;;
73816;SDS011;62146;53.232;-1.304;2023-05-10T15:06:10;2.22;;;0.63;;
73816;SDS011;62146;53.232;-1.304;2023-05-10T15:08:37;1.42;;;0.50;;
73816;SDS011;62146;53.232;-1.304;2023-05-10T15:11:03;1.60;;;0.38;;
73816;SDS011;62146;53.232;-1.304;2023-05-10T15:13:30;1.98;;;0.47;;
73816;SDS011;62146;53.232;-1.304;2023-05-10T15:15:57;0.90;;;0.40;;